Terminal Aerodrome Forecast
Issued by NWS

Home | Current Version | Previous Version | Text Only | Print | Product List | Glossary On
Versions: 1 2 3 4 5 6 7 8 9 10 11 12 13 14 15 16 17 18 19 20 21 22 23 24 25 26 27 28 29 30 31 32 33
000
FTUS43 KPAH 282339
TAFOWB
TAF
KOWB 282339Z 0100/0124 09006KT P6SM OVC080
     FM010300 11004KT 5SM -FZRASN BR BKN015 OVC035
     FM010900 13003KT 2SM -DZ BR OVC008
     FM011400 00000KT 3SM -DZ BR OVC006=

USA.gov is the U.S. government's official web portal to all federal, state and local government web resources and services.